sensor_id;sensor_type;location;lat;lon;timestamp;pressure;altitude;pressure_sealevel;temperature;humidity
39223;BME280;24936;46.328;11.026;2023-06-26T00:01:29;94484.66;;;15.59;87.30
39223;BME280;24936;46.328;11.026;2023-06-26T00:03:56;94481.22;;;15.34;88.98
39223;BME280;24936;46.328;11.026;2023-06-26T00:06:22;94482.91;;;15.19;89.81
39223;BME280;24936;46.328;11.026;2023-06-26T00:08:52;94478.63;;;15.18;89.93
39223;BME280;24936;46.328;11.026;2023-06-26T00:11:18;94483.25;;;15.16;90.00
39223;BME280;24936;46.328;11.026;2023-06-26T00:13:44;94481.34;;;15.57;87.61
39223;BME280;24936;46.328;11.026;2023-06-26T00:16:09;94487.22;;;15.84;86.15
39223;BME280;24936;46.328;11.026;2023-06-26T00:18:35;94483.91;;;15.82;86.17
39223;BME280;24936;46.328;11.026;2023-06-26T00:21:00;94473.25;;;15.99;84.83
39223;BME280;24936;46.328;11.026;2023-06-26T00:23:25;94478.44;;;15.84;85.58
39223;BME280;24936;46.328;11.026;2023-06-26T00:25:52;94482.94;;;15.92;85.34
39223;BME280;24936;46.328;11.026;2023-06-26T00:28:18;94478.78;;;15.81;86.09
39223;BME280;24936;46.328;11.026;2023-06-26T00:30:43;94477.84;;;15.65;86.74
39223;BME280;24936;46.328;11.026;2023-06-26T00:33:09;94479.03;;;15.63;86.89
39223;BME280;24936;46.328;11.026;2023-06-26T00:35:34;94482.84;;;15.60;87.33
39223;BME280;24936;46.328;11.026;2023-06-26T00:38:01;94486.66;;;15.57;87.54
39223;BME280;24936;46.328;11.026;2023-06-26T00:40:26;94487.19;;;15.44;88.18
39223;BME280;24936;46.328;11.026;2023-06-26T00:42:52;94488.34;;;15.42;88.32
39223;BME280;24936;46.328;11.026;2023-06-26T00:45:17;94494.00;;;15.31;88.97
39223;BME280;24936;46.328;11.026;2023-06-26T00:47:43;94488.03;;;15.12;89.85
39223;BME280;24936;46.328;11.026;2023-06-26T00:50:08;94489.41;;;15.08;89.78
39223;BME280;24936;46.328;11.026;2023-06-26T00:52:34;94487.72;;;15.23;89.25
39223;BME280;24936;46.328;11.026;2023-06-26T00:54:59;94486.41;;;15.19;89.54
39223;BME280;24936;46.328;11.026;2023-06-26T00:57:25;94490.31;;;15.40;87.92
39223;BME280;24936;46.328;11.026;2023-06-26T00:59:50;94491.16;;;15.40;88.46
39223;BME280;24936;46.328;11.026;2023-06-26T01:02:16;94489.72;;;15.13;89.66
39223;BME280;24936;46.328;11.026;2023-06-26T01:04:49;94490.22;;;15.17;89.66
39223;BME280;24936;46.328;11.026;2023-06-26T01:07:15;94498.16;;;15.25;88.87
39223;BME280;24936;46.328;11.026;2023-06-26T01:09:45;94488.38;;;15.17;89.38
39223;BME280;24936;46.328;11.026;2023-06-26T01:12:11;94488.88;;;15.12;89.15
39223;BME280;24936;46.328;11.026;2023-06-26T01:14:37;94494.19;;;15.12;89.19
39223;BME280;24936;46.328;11.026;2023-06-26T01:17:03;94490.22;;;15.08;89.06
39223;BME280;24936;46.328;11.026;2023-06-26T01:19:30;94488.41;;;14.92;90.19
39223;BME280;24936;46.328;11.026;2023-06-26T01:27:30;94490.72;;;14.87;90.57
39223;BME280;24936;46.328;11.026;2023-06-26T01:30:00;94487.22;;;14.78;91.06
39223;BME280;24936;46.328;11.026;2023-06-26T01:32:28;94489.88;;;14.70;91.18
39223;BME280;24936;46.328;11.026;2023-06-26T01:34:54;94499.63;;;14.53;92.24
39223;BME280;24936;46.328;11.026;2023-06-26T01:37:19;94498.13;;;14.59;92.07
39223;BME280;24936;46.328;11.026;2023-06-26T01:39:45;94495.66;;;14.65;91.73
39223;BME280;24936;46.328;11.026;2023-06-26T01:42:11;94495.66;;;14.65;91.61
39223;BME280;24936;46.328;11.026;2023-06-26T01:44:44;94498.63;;;14.62;91.71
39223;BME280;24936;46.328;11.026;2023-06-26T01:47:12;94501.94;;;14.64;91.67
39223;BME280;24936;46.328;11.026;2023-06-26T01:50:02;94496.63;;;14.48;92.38
39223;BME280;24936;46.328;11.026;2023-06-26T01:52:46;94498.94;;;14.51;92.59
39223;BME280;24936;46.328;11.026;2023-06-26T01:55:22;94510.53;;;14.58;92.45
39223;BME280;24936;46.328;11.026;2023-06-26T01:57:52;94505.72;;;14.53;92.42
39223;BME280;24936;46.328;11.026;2023-06-26T02:00:20;94499.75;;;14.43;93.06
39223;BME280;24936;46.328;11.026;2023-06-26T02:02:46;94497.06;;;14.35;93.60
39223;BME280;24936;46.328;11.026;2023-06-26T02:05:12;94503.06;;;14.45;93.17
39223;BME280;24936;46.328;11.026;2023-06-26T02:07:38;94503.41;;;14.42;93.03
39223;BME280;24936;46.328;11.026;2023-06-26T02:10:04;94500.88;;;14.24;94.13
39223;BME280;24936;46.328;11.026;2023-06-26T02:12:29;94496.25;;;14.26;94.03
39223;BME280;24936;46.328;11.026;2023-06-26T02:14:55;94499.72;;;14.27;93.87
39223;BME280;24936;46.328;11.026;2023-06-26T02:17:20;94504.66;;;14.21;94.15
39223;BME280;24936;46.328;11.026;2023-06-26T02:19:46;94505.81;;;14.11;94.53
39223;BME280;24936;46.328;11.026;2023-06-26T02:22:15;94512.06;;;14.10;94.79
39223;BME280;24936;46.328;11.026;2023-06-26T02:24:41;94512.75;;;14.20;93.94
39223;BME280;24936;46.328;11.026;2023-06-26T02:27:07;94508.28;;;14.12;93.94
39223;BME280;24936;46.328;11.026;2023-06-26T02:29:33;94511.22;;;14.09;94.67
39223;BME280;24936;46.328;11.026;2023-06-26T02:31:58;94504.09;;;14.01;95.43
39223;BME280;24936;46.328;11.026;2023-06-26T02:34:24;94504.63;;;14.05;94.86
39223;BME280;24936;46.328;11.026;2023-06-26T02:36:49;94510.72;;;14.05;94.87
39223;BME280;24936;46.328;11.026;2023-06-26T02:39:15;94517.84;;;14.05;94.82
39223;BME280;24936;46.328;11.026;2023-06-26T02:41:40;94512.56;;;14.05;94.60
39223;BME280;24936;46.328;11.026;2023-06-26T02:44:06;94507.41;;;14.03;94.56
39223;BME280;24936;46.328;11.026;2023-06-26T02:46:32;94516.81;;;13.89;95.78
39223;BME280;24936;46.328;11.026;2023-06-26T02:48:58;94520.25;;;13.82;96.24
39223;BME280;24936;46.328;11.026;2023-06-26T02:51:24;94518.28;;;13.92;95.57
39223;BME280;24936;46.328;11.026;2023-06-26T02:53:49;94520.66;;;14.03;94.99
39223;BME280;24936;46.328;11.026;2023-06-26T02:56:15;94526.97;;;14.11;94.62
39223;BME280;24936;46.328;11.026;2023-06-26T02:58:40;94526.59;;;14.05;94.53
39223;BME280;24936;46.328;11.026;2023-06-26T03:01:06;94526.00;;;14.20;93.37
39223;BME280;24936;46.328;11.026;2023-06-26T03:03:31;94525.69;;;14.31;92.70
39223;BME280;24936;46.328;11.026;2023-06-26T03:06:08;94522.53;;;14.28;92.51
39223;BME280;24936;46.328;11.026;2023-06-26T03:08:36;94526.47;;;14.15;93.34
39223;BME280;24936;46.328;11.026;2023-06-26T03:11:02;94530.28;;;14.13;93.21
39223;BME280;24936;46.328;11.026;2023-06-26T03:13:28;94529.91;;;13.99;94.04
39223;BME280;24936;46.328;11.026;2023-06-26T03:15:53;94530.69;;;13.91;94.62
39223;BME280;24936;46.328;11.026;2023-06-26T03:18:19;94526.22;;;13.92;94.58
39223;BME280;24936;46.328;11.026;2023-06-26T03:20:44;94524.44;;;14.01;94.14
39223;BME280;24936;46.328;11.026;2023-06-26T03:23:10;94537.97;;;13.98;94.24
39223;BME280;24936;46.328;11.026;2023-06-26T03:25:35;94535.78;;;13.85;94.78
39223;BME280;24936;46.328;11.026;2023-06-26T03:28:01;94535.75;;;13.76;95.70
39223;BME280;24936;46.328;11.026;2023-06-26T03:30:26;94540.03;;;13.77;95.53
39223;BME280;24936;46.328;11.026;2023-06-26T03:32:52;94536.59;;;13.77;95.42
39223;BME280;24936;46.328;11.026;2023-06-26T03:35:17;94536.22;;;13.72;95.93
39223;BME280;24936;46.328;11.026;2023-06-26T03:37:43;94535.19;;;13.65;96.46
39223;BME280;24936;46.328;11.026;2023-06-26T03:40:09;94539.25;;;13.51;96.98
39223;BME280;24936;46.328;11.026;2023-06-26T03:42:34;94548.16;;;13.50;97.35
39223;BME280;24936;46.328;11.026;2023-06-26T03:45:00;94542.66;;;13.43;97.31
39223;BME280;24936;46.328;11.026;2023-06-26T03:47:25;94543.88;;;13.30;98.12
39223;BME280;24936;46.328;11.026;2023-06-26T03:49:51;94545.16;;;13.26;98.49
39223;BME280;24936;46.328;11.026;2023-06-26T03:52:16;94547.78;;;13.26;98.58
39223;BME280;24936;46.328;11.026;2023-06-26T03:54:42;94546.91;;;13.18;99.32
39223;BME280;24936;46.328;11.026;2023-06-26T03:57:07;94545.56;;;13.13;99.68
39223;BME280;24936;46.328;11.026;2023-06-26T03:59:32;94549.53;;;13.18;100.00
39223;BME280;24936;46.328;11.026;2023-06-26T04:01:58;94557.75;;;13.33;99.63
39223;BME280;24936;46.328;11.026;2023-06-26T04:04:24;94549.13;;;13.49;98.48
39223;BME280;24936;46.328;11.026;2023-06-26T04:06:49;94552.50;;;13.59;97.53
39223;BME280;24936;46.328;11.026;2023-06-26T04:09:14;94551.38;;;13.61;97.87
39223;BME280;24936;46.328;11.026;2023-06-26T04:11:40;94547.47;;;13.48;98.32
39223;BME280;24936;46.328;11.026;2023-06-26T04:14:05;94550.53;;;13.61;98.17
39223;BME280;24936;46.328;11.026;2023-06-26T04:16:31;94552.25;;;13.70;97.46
39223;BME280;24936;46.328;11.026;2023-06-26T04:18:56;94550.59;;;13.69;97.59
39223;BME280;24936;46.328;11.026;2023-06-26T04:21:23;94550.91;;;13.66;98.15
39223;BME280;24936;46.328;11.026;2023-06-26T04:23:51;94557.34;;;13.64;98.72
39223;BME280;24936;46.328;11.026;2023-06-26T04:26:17;94565.50;;;13.79;97.95
39223;BME280;24936;46.328;11.026;2023-06-26T04:28:42;94555.53;;;13.99;97.22
39223;BME280;24936;46.328;11.026;2023-06-26T04:31:08;94558.06;;;14.09;96.74
39223;BME280;24936;46.328;11.026;2023-06-26T04:33:36;94566.50;;;14.12;96.43
39223;BME280;24936;46.328;11.026;2023-06-26T04:36:03;94577.28;;;14.19;96.34
39223;BME280;24936;46.328;11.026;2023-06-26T04:38:32;94576.31;;;14.28;96.32
39223;BME280;24936;46.328;11.026;2023-06-26T04:40:58;94566.75;;;14.35;95.68
39223;BME280;24936;46.328;11.026;2023-06-26T04:43:24;94562.81;;;14.40;95.42
39223;BME280;24936;46.328;11.026;2023-06-26T04:45:49;94563.75;;;14.30;95.78
39223;BME280;24936;46.328;11.026;2023-06-26T04:48:15;94569.72;;;14.32;95.68
39223;BME280;24936;46.328;11.026;2023-06-26T04:50:40;94571.19;;;14.27;96.62
39223;BME280;24936;46.328;11.026;2023-06-26T04:53:06;94567.38;;;14.29;96.24
39223;BME280;24936;46.328;11.026;2023-06-26T04:55:31;94567.63;;;14.52;95.33
39223;BME280;24936;46.328;11.026;2023-06-26T04:57:57;94550.41;;;14.48;96.06
39223;BME280;24936;46.328;11.026;2023-06-26T05:00:22;94554.22;;;14.54;96.32
39223;BME280;24936;46.328;11.026;2023-06-26T05:02:50;94561.56;;;14.68;95.37
39223;BME280;24936;46.328;11.026;2023-06-26T05:05:25;94555.97;;;14.88;93.59
39223;BME280;24936;46.328;11.026;2023-06-26T05:07:53;94557.63;;;14.89;94.09
39223;BME280;24936;46.328;11.026;2023-06-26T05:10:19;94546.69;;;15.01;93.59
39223;BME280;24936;46.328;11.026;2023-06-26T05:12:44;94540.06;;;15.05;93.65
39223;BME280;24936;46.328;11.026;2023-06-26T05:15:10;94544.84;;;15.34;91.04
39223;BME280;24936;46.328;11.026;2023-06-26T05:17:35;94549.66;;;15.31;91.68
39223;BME280;24936;46.328;11.026;2023-06-26T05:20:00;94553.50;;;15.28;92.79
39223;BME280;24936;46.328;11.026;2023-06-26T05:22:26;94545.69;;;15.26;92.88
39223;BME280;24936;46.328;11.026;2023-06-26T05:24:51;94553.63;;;15.43;93.07
39223;BME280;24936;46.328;11.026;2023-06-26T05:27:20;94550.66;;;15.46;92.18
39223;BME280;24936;46.328;11.026;2023-06-26T05:29:48;94537.56;;;15.44;92.14
39223;BME280;24936;46.328;11.026;2023-06-26T05:32:15;94551.31;;;15.48;91.41
39223;BME280;24936;46.328;11.026;2023-06-26T05:34:48;94543.53;;;15.55;91.42
39223;BME280;24936;46.328;11.026;2023-06-26T05:37:20;94530.78;;;15.50;93.19
39223;BME280;24936;46.328;11.026;2023-06-26T05:39:46;94536.03;;;15.58;93.68
39223;BME280;24936;46.328;11.026;2023-06-26T05:44:56;94537.38;;;15.63;93.02
39223;BME280;24936;46.328;11.026;2023-06-26T05:47:22;94533.03;;;15.70;93.53
39223;BME280;24936;46.328;11.026;2023-06-26T05:49:47;94530.00;;;15.81;92.76
39223;BME280;24936;46.328;11.026;2023-06-26T05:52:13;94533.19;;;15.77;93.24
39223;BME280;24936;46.328;11.026;2023-06-26T05:54:39;94527.72;;;15.78;91.68
39223;BME280;24936;46.328;11.026;2023-06-26T05:57:04;94532.31;;;15.84;89.79
39223;BME280;24936;46.328;11.026;2023-06-26T05:59:34;94531.25;;;16.18;86.11
39223;BME280;24936;46.328;11.026;2023-06-26T06:02:02;94519.84;;;16.41;85.00
39223;BME280;24936;46.328;11.026;2023-06-26T06:04:27;94524.34;;;16.41;85.07
39223;BME280;24936;46.328;11.026;2023-06-26T06:06:53;94521.19;;;16.37;85.25
39223;BME280;24936;46.328;11.026;2023-06-26T06:09:18;94518.53;;;16.37;85.99
39223;BME280;24936;46.328;11.026;2023-06-26T06:11:43;94515.75;;;16.30;86.82
39223;BME280;24936;46.328;11.026;2023-06-26T06:14:09;94509.94;;;16.35;87.17
39223;BME280;24936;46.328;11.026;2023-06-26T06:16:34;94510.19;;;16.48;85.07
39223;BME280;24936;46.328;11.026;2023-06-26T06:18:59;94518.09;;;16.57;85.05
39223;BME280;24936;46.328;11.026;2023-06-26T06:21:25;94526.38;;;16.62;85.33
39223;BME280;24936;46.328;11.026;2023-06-26T06:23:50;94517.03;;;16.66;84.81
39223;BME280;24936;46.328;11.026;2023-06-26T06:26:16;94514.63;;;16.79;84.20
39223;BME280;24936;46.328;11.026;2023-06-26T06:28:41;94508.88;;;16.99;82.34
39223;BME280;24936;46.328;11.026;2023-06-26T06:31:06;94511.44;;;17.07;82.41
39223;BME280;24936;46.328;11.026;2023-06-26T06:33:32;94511.84;;;17.19;83.05
39223;BME280;24936;46.328;11.026;2023-06-26T06:35:57;94501.69;;;17.23;83.13
39223;BME280;24936;46.328;11.026;2023-06-26T06:38:22;94507.31;;;17.28;82.37
39223;BME280;24936;46.328;11.026;2023-06-26T06:40:48;94501.63;;;17.31;82.45
39223;BME280;24936;46.328;11.026;2023-06-26T06:43:13;94502.84;;;17.43;82.53
39223;BME280;24936;46.328;11.026;2023-06-26T06:45:39;94504.13;;;17.48;81.87
39223;BME280;24936;46.328;11.026;2023-06-26T06:48:04;94501.84;;;17.60;82.70
39223;BME280;24936;46.328;11.026;2023-06-26T06:50:30;94499.09;;;17.68;83.17
39223;BME280;24936;46.328;11.026;2023-06-26T06:52:55;94492.97;;;17.82;82.38
39223;BME280;24936;46.328;11.026;2023-06-26T06:55:20;94495.13;;;17.79;82.56
39223;BME280;24936;46.328;11.026;2023-06-26T06:57:46;94493.41;;;17.86;83.51
39223;BME280;24936;46.328;11.026;2023-06-26T07:00:12;94490.13;;;17.99;83.40
39223;BME280;24936;46.328;11.026;2023-06-26T07:02:42;94496.44;;;18.13;82.91
39223;BME280;24936;46.328;11.026;2023-06-26T07:05:08;94498.00;;;18.22;82.01
39223;BME280;24936;46.328;11.026;2023-06-26T07:07:35;94490.72;;;18.31;81.75
39223;BME280;24936;46.328;11.026;2023-06-26T07:10:11;94499.16;;;18.34;81.10
39223;BME280;24936;46.328;11.026;2023-06-26T07:12:37;94491.06;;;18.43;80.73
39223;BME280;24936;46.328;11.026;2023-06-26T07:15:04;94482.50;;;18.47;80.71
39223;BME280;24936;46.328;11.026;2023-06-26T07:17:34;94486.69;;;18.57;77.16
39223;BME280;24936;46.328;11.026;2023-06-26T07:20:00;94485.97;;;18.63;78.95
39223;BME280;24936;46.328;11.026;2023-06-26T07:22:26;94488.38;;;18.79;76.82
39223;BME280;24936;46.328;11.026;2023-06-26T07:24:51;94477.19;;;18.91;75.59
39223;BME280;24936;46.328;11.026;2023-06-26T07:27:18;94474.31;;;19.07;75.74
39223;BME280;24936;46.328;11.026;2023-06-26T07:29:44;94474.09;;;19.09;76.36
39223;BME280;24936;46.328;11.026;2023-06-26T07:32:10;94477.41;;;19.11;75.36
39223;BME280;24936;46.328;11.026;2023-06-26T07:34:35;94474.16;;;19.16;74.68
39223;BME280;24936;46.328;11.026;2023-06-26T07:37:01;94470.56;;;19.30;75.04
39223;BME280;24936;46.328;11.026;2023-06-26T07:39:26;94466.56;;;19.41;74.43
39223;BME280;24936;46.328;11.026;2023-06-26T07:41:52;94460.09;;;19.57;74.78
39223;BME280;24936;46.328;11.026;2023-06-26T07:44:17;94457.00;;;19.89;73.46
39223;BME280;24936;46.328;11.026;2023-06-26T07:46:43;94458.19;;;20.28;72.63
39223;BME280;24936;46.328;11.026;2023-06-26T07:49:10;94460.16;;;20.74;70.08
39223;BME280;24936;46.328;11.026;2023-06-26T07:51:36;94452.22;;;21.15;69.44
39223;BME280;24936;46.328;11.026;2023-06-26T07:54:01;94456.50;;;21.56;63.76
39223;BME280;24936;46.328;11.026;2023-06-26T07:56:26;94455.91;;;21.67;63.73
39223;BME280;24936;46.328;11.026;2023-06-26T07:58:52;94454.84;;;21.82;64.59
39223;BME280;24936;46.328;11.026;2023-06-26T08:01:18;94452.06;;;22.09;62.55
39223;BME280;24936;46.328;11.026;2023-06-26T08:03:43;94446.09;;;22.13;62.23
39223;BME280;24936;46.328;11.026;2023-06-26T08:06:08;94460.53;;;22.58;62.91
39223;BME280;24936;46.328;11.026;2023-06-26T08:08:34;94444.50;;;22.83;63.56
39223;BME280;24936;46.328;11.026;2023-06-26T08:10:59;94445.47;;;22.96;62.52
39223;BME280;24936;46.328;11.026;2023-06-26T08:13:25;94446.50;;;23.27;60.01
39223;BME280;24936;46.328;11.026;2023-06-26T08:15:50;94441.25;;;24.20;59.23
39223;BME280;24936;46.328;11.026;2023-06-26T08:18:17;94440.28;;;24.63;57.70
39223;BME280;24936;46.328;11.026;2023-06-26T08:20:42;94438.94;;;24.23;56.22
39223;BME280;24936;46.328;11.026;2023-06-26T08:23:08;94434.44;;;24.97;57.35
39223;BME280;24936;46.328;11.026;2023-06-26T08:25:33;94430.63;;;25.28;55.48
39223;BME280;24936;46.328;11.026;2023-06-26T08:27:59;94432.78;;;25.86;56.34
39223;BME280;24936;46.328;11.026;2023-06-26T08:30:24;94426.03;;;25.17;57.04
39223;BME280;24936;46.328;11.026;2023-06-26T08:32:54;94425.09;;;26.06;54.69
39223;BME280;24936;46.328;11.026;2023-06-26T08:35:20;94423.34;;;26.94;52.70
39223;BME280;24936;46.328;11.026;2023-06-26T08:37:45;94428.00;;;27.32;49.99
39223;BME280;24936;46.328;11.026;2023-06-26T08:40:12;94419.34;;;27.13;46.76
39223;BME280;24936;46.328;11.026;2023-06-26T08:42:38;94420.91;;;27.26;50.88
39223;BME280;24936;46.328;11.026;2023-06-26T08:45:03;94420.53;;;26.89;52.61
39223;BME280;24936;46.328;11.026;2023-06-26T08:47:29;94418.19;;;27.09;52.08
39223;BME280;24936;46.328;11.026;2023-06-26T08:50:10;94412.38;;;27.35;50.78
39223;BME280;24936;46.328;11.026;2023-06-26T08:52:48;94403.06;;;28.21;47.63
39223;BME280;24936;46.328;11.026;2023-06-26T08:55:16;94404.34;;;29.18;52.35
39223;BME280;24936;46.328;11.026;2023-06-26T08:57:43;94400.16;;;30.18;44.24
39223;BME280;24936;46.328;11.026;2023-06-26T09:00:09;94396.03;;;30.05;42.45
39223;BME280;24936;46.328;11.026;2023-06-26T09:02:36;94397.94;;;30.10;43.75
39223;BME280;24936;46.328;11.026;2023-06-26T09:05:03;94400.88;;;29.98;46.20
39223;BME280;24936;46.328;11.026;2023-06-26T09:07:28;94393.38;;;31.15;39.96
39223;BME280;24936;46.328;11.026;2023-06-26T09:09:54;94390.81;;;32.12;41.85
39223;BME280;24936;46.328;11.026;2023-06-26T09:12:20;94389.91;;;32.42;37.76
39223;BME280;24936;46.328;11.026;2023-06-26T09:14:46;94391.09;;;32.71;36.92
39223;BME280;24936;46.328;11.026;2023-06-26T09:17:13;94378.91;;;33.08;35.30
39223;BME280;24936;46.328;11.026;2023-06-26T09:19:39;94378.91;;;32.63;37.96
39223;BME280;24936;46.328;11.026;2023-06-26T09:22:04;94376.91;;;33.19;37.65
39223;BME280;24936;46.328;11.026;2023-06-26T09:24:30;94365.97;;;33.24;38.98
39223;BME280;24936;46.328;11.026;2023-06-26T09:26:56;94365.44;;;34.10;34.54
39223;BME280;24936;46.328;11.026;2023-06-26T09:29:22;94362.81;;;34.87;35.01
39223;BME280;24936;46.328;11.026;2023-06-26T09:31:51;94366.88;;;35.09;34.46
39223;BME280;24936;46.328;11.026;2023-06-26T09:34:17;94362.38;;;34.80;30.48
39223;BME280;24936;46.328;11.026;2023-06-26T09:36:44;94366.28;;;35.12;35.01
39223;BME280;24936;46.328;11.026;2023-06-26T09:39:11;94354.50;;;34.97;32.73
39223;BME280;24936;46.328;11.026;2023-06-26T09:41:38;94356.25;;;34.88;33.52
39223;BME280;24936;46.328;11.026;2023-06-26T09:44:05;94344.81;;;35.05;33.29
39223;BME280;24936;46.328;11.026;2023-06-26T09:46:31;94349.94;;;35.59;34.47
39223;BME280;24936;46.328;11.026;2023-06-26T09:49:07;94342.13;;;34.81;35.46
39223;BME280;24936;46.328;11.026;2023-06-26T09:51:34;94344.69;;;35.29;31.88
39223;BME280;24936;46.328;11.026;2023-06-26T09:54:00;94338.88;;;35.50;33.37
39223;BME280;24936;46.328;11.026;2023-06-26T09:56:28;94335.47;;;35.58;31.18
39223;BME280;24936;46.328;11.026;2023-06-26T09:58:58;94338.56;;;35.99;36.39
39223;BME280;24936;46.328;11.026;2023-06-26T10:01:24;94327.91;;;35.97;33.26
39223;BME280;24936;46.328;11.026;2023-06-26T10:03:50;94321.94;;;36.09;31.96
39223;BME280;24936;46.328;11.026;2023-06-26T10:06:19;94324.56;;;36.14;28.72
39223;BME280;24936;46.328;11.026;2023-06-26T10:08:47;94323.78;;;36.00;29.40
39223;BME280;24936;46.328;11.026;2023-06-26T10:11:16;94317.22;;;35.20;36.21
39223;BME280;24936;46.328;11.026;2023-06-26T10:13:45;94310.44;;;35.79;34.45
39223;BME280;24936;46.328;11.026;2023-06-26T10:16:18;94307.84;;;37.03;32.81
39223;BME280;24936;46.328;11.026;2023-06-26T10:18:48;94305.16;;;36.52;29.99
39223;BME280;24936;46.328;11.026;2023-06-26T10:21:15;94301.00;;;36.27;29.33
39223;BME280;24936;46.328;11.026;2023-06-26T10:23:42;94314.25;;;36.98;31.09
39223;BME280;24936;46.328;11.026;2023-06-26T10:26:10;94317.47;;;35.85;29.26
39223;BME280;24936;46.328;11.026;2023-06-26T10:28:37;94308.81;;;35.50;32.68
39223;BME280;24936;46.328;11.026;2023-06-26T10:31:03;94306.28;;;35.81;28.17
39223;BME280;24936;46.328;11.026;2023-06-26T10:33:31;94300.22;;;35.85;29.26
39223;BME280;24936;46.328;11.026;2023-06-26T10:36:17;94295.06;;;35.97;32.43
39223;BME280;24936;46.328;11.026;2023-06-26T10:38:50;94293.34;;;36.88;30.54
39223;BME280;24936;46.328;11.026;2023-06-26T10:41:19;94287.16;;;37.19;26.12
39223;BME280;24936;46.328;11.026;2023-06-26T10:43:45;94285.09;;;37.57;26.28
39223;BME280;24936;46.328;11.026;2023-06-26T10:46:15;94286.63;;;36.72;27.47
39223;BME280;24936;46.328;11.026;2023-06-26T10:48:59;94282.13;;;35.42;26.29
39223;BME280;24936;46.328;11.026;2023-06-26T10:51:26;94279.31;;;36.45;29.89
39223;BME280;24936;46.328;11.026;2023-06-26T10:53:56;94274.59;;;36.82;23.97
39223;BME280;24936;46.328;11.026;2023-06-26T10:56:44;94271.81;;;37.18;25.95
39223;BME280;24936;46.328;11.026;2023-06-26T10:59:14;94274.34;;;38.09;29.86
39223;BME280;24936;46.328;11.026;2023-06-26T11:01:41;94268.56;;;38.20;27.48
39223;BME280;24936;46.328;11.026;2023-06-26T11:04:10;94274.09;;;38.46;24.51
39223;BME280;24936;46.328;11.026;2023-06-26T11:06:38;94266.31;;;38.22;21.17
39223;BME280;24936;46.328;11.026;2023-06-26T11:09:08;94266.03;;;38.85;25.20
39223;BME280;24936;46.328;11.026;2023-06-26T11:14:22;94258.28;;;39.05;28.00
39223;BME280;24936;46.328;11.026;2023-06-26T11:16:48;94257.91;;;39.15;22.76
39223;BME280;24936;46.328;11.026;2023-06-26T11:19:17;94251.63;;;38.79;20.64
39223;BME280;24936;46.328;11.026;2023-06-26T11:21:43;94246.13;;;38.79;26.55
39223;BME280;24936;46.328;11.026;2023-06-26T11:24:10;94247.13;;;38.92;19.53
39223;BME280;24936;46.328;11.026;2023-06-26T11:26:44;94247.88;;;38.31;19.23
39223;BME280;24936;46.328;11.026;2023-06-26T11:29:11;94252.75;;;38.69;20.88
39223;BME280;24936;46.328;11.026;2023-06-26T11:31:38;94237.06;;;37.68;24.65
39223;BME280;24936;46.328;11.026;2023-06-26T11:34:09;94231.75;;;38.56;23.86
39223;BME280;24936;46.328;11.026;2023-06-26T11:36:40;94241.25;;;38.32;23.51
39223;BME280;24936;46.328;11.026;2023-06-26T11:39:08;94233.50;;;38.25;23.07
39223;BME280;24936;46.328;11.026;2023-06-26T11:41:35;94224.00;;;38.40;24.59
39223;BME280;24936;46.328;11.026;2023-06-26T11:44:08;94224.09;;;38.09;22.05
39223;BME280;24936;46.328;11.026;2023-06-26T11:46:39;94221.09;;;38.37;26.24
39223;BME280;24936;46.328;11.026;2023-06-26T11:49:08;94224.56;;;37.93;22.90
39223;BME280;24936;46.328;11.026;2023-06-26T11:51:34;94219.25;;;37.97;23.75
39223;BME280;24936;46.328;11.026;2023-06-26T11:54:02;94220.81;;;37.81;21.26
39223;BME280;24936;46.328;11.026;2023-06-26T11:56:28;94221.66;;;37.49;24.88
39223;BME280;24936;46.328;11.026;2023-06-26T11:59:05;94217.38;;;37.66;29.28
39223;BME280;24936;46.328;11.026;2023-06-26T12:01:41;94207.97;;;37.49;24.08
39223;BME280;24936;46.328;11.026;2023-06-26T12:04:09;94214.28;;;38.17;23.87
39223;BME280;24936;46.328;11.026;2023-06-26T12:06:39;94212.38;;;37.68;23.52
39223;BME280;24936;46.328;11.026;2023-06-26T12:09:09;94205.22;;;37.18;22.75
39223;BME280;24936;46.328;11.026;2023-06-26T12:11:41;94214.31;;;37.68;23.76
39223;BME280;24936;46.328;11.026;2023-06-26T12:14:08;94198.53;;;37.82;22.38
39223;BME280;24936;46.328;11.026;2023-06-26T12:16:35;94202.38;;;37.32;23.29
39223;BME280;24936;46.328;11.026;2023-06-26T12:19:01;94196.97;;;36.27;23.73
39223;BME280;24936;46.328;11.026;2023-06-26T12:24:02;94198.16;;;36.94;24.61
39223;BME280;24936;46.328;11.026;2023-06-26T12:26:28;94187.97;;;36.72;21.38
39223;BME280;24936;46.328;11.026;2023-06-26T12:29:07;94191.06;;;36.34;22.98
39223;BME280;24936;46.328;11.026;2023-06-26T12:31:33;94190.25;;;36.93;25.13
39223;BME280;24936;46.328;11.026;2023-06-26T12:34:07;94193.88;;;36.56;24.40
39223;BME280;24936;46.328;11.026;2023-06-26T12:36:39;94184.00;;;36.78;24.68
39223;BME280;24936;46.328;11.026;2023-06-26T12:39:04;94177.03;;;36.49;23.97
39223;BME280;24936;46.328;11.026;2023-06-26T12:41:29;94180.16;;;36.79;23.42
39223;BME280;24936;46.328;11.026;2023-06-26T12:43:56;94171.31;;;35.86;26.42
39223;BME280;24936;46.328;11.026;2023-06-26T12:46:33;94172.56;;;36.53;23.50
39223;BME280;24936;46.328;11.026;2023-06-26T12:49:00;94175.59;;;36.52;26.54
39223;BME280;24936;46.328;11.026;2023-06-26T12:51:26;94172.34;;;36.95;28.13
39223;BME280;24936;46.328;11.026;2023-06-26T12:53:52;94173.03;;;36.78;23.67
39223;BME280;24936;46.328;11.026;2023-06-26T12:56:18;94167.06;;;36.76;27.64
39223;BME280;24936;46.328;11.026;2023-06-26T12:58:45;94158.72;;;36.58;27.02
39223;BME280;24936;46.328;11.026;2023-06-26T13:01:10;94161.72;;;36.71;26.67
39223;BME280;24936;46.328;11.026;2023-06-26T13:03:39;94156.78;;;36.82;28.31